Flat Rock, MI (48134)

2:55 AM EST on February 28, 2017 (GMT -0500)
Evelyn Ave | | Change Station

Elev 600 ft 42.11 °N, 83.30 °W | Updated 28 seconds ago

Partly Cloudy
Partly Cloudy
35.4 °F
Feels Like 35 °F
N
0.0
Wind Variable Wind from East

Today
High -- | Low -- °F
--% Chance of Precip.
Yesterday
High -- | Low -- °F
Precip. -- in
Pressure 30.17 in
Visibility 7.0 miles
Clouds Scattered Clouds 12000 ft
Windchill 35 °F
Dew Point 35 °F
Humidity 99%
Rainfall 0.00 in
Snow Depth Not available.
7:09 AM 6:22 PM
Waxing Crescent, 4% visible
METAR KONZ 280733Z AUTO 00000KT 7SM SCT120 03/02 A3017 RMK AO2 T00310022
Pressure 30.17 in
Visibility 7.0 miles
Clouds Scattered Clouds 12000 ft
Windchill 35 °F
Dew Point 35 °F
Humidity 99%
Rainfall 0.00 in
Snow Depth Not available.
7:09 AM 6:22 PM
Waxing Crescent, 4% visible
METAR KONZ 280733Z AUTO 00000KT 7SM SCT120 03/02 A3017 RMK AO2 T00310022

Get Your Daily Forecast Email!

Thanks for signing up!

Be on the lookout for a verification email in your inbox.

You'll start receiving the daily forecast at 8 AM.

×

10-Day Weather Forecast

Almanac

Astronomy

Feb. 28, 2017 Rise Set
Actual Time
Civil Twilight
Nautical Twilight
Astronomical Twilight
Moon
Length of Visible Light
Length of Day
Tomorrow will be .
, % of the Moon is Illuminated

Today's Extremes

State Highs State Lows

Community

WunderPhotos

Upload Photos

1,962,540 photos uploaded!

WunderBlog® & News

Nearby

Air Quality

  Air Quality AQ Index Pollutant
Not available.

Snow Depth

Station Depth Elevation

Earthquake Activity

City Distance Mag. Time & Date
Minimum magnitude displayed is 2.5.

Coastal Water Temperatures

Place Temperature

Stations

Nearby Weather Stations

Station Location Temp. Windchill Dew Point Humidity Wind Precip. Elev Updated Type
                   

Watches & Warnings

There are currently no watches in effect.